KARA/ARA METAR and TAF weather

Enter ICAO airport designator
Station Type Date Time Source
KARA METAR 2022/12/10 02:27 UTC NOAA

KARA 100227Z 00000KT 1 1/2SM BR CLR 19/18 A3012 RMK AO2 T01890178


Station Type Date Time Source
KARA Decoded METAR 2022/12/10 02:27 UTC NOAA

NEW IBERIA ACADIANA REGIONAL, LA, United States (KARA) 30-02N 091-53W 18M
Dec 09, 2022 - 09:27 PM EST / 2022.12.10 0227 UTC
Wind: Calm:0
Visibility: 1 1/2 mile(s):0
Sky conditions: clear
Weather: mist
Temperature: 66.0 F (18.9 C)
Dew Point: 64.0 F (17.8 C)
Relative Humidity: 93%
Pressure (altimeter): 30.12 in. Hg (1019 hPa)
ob: KARA 100227Z 00000KT 1 1/2SM BR CLR 19/18 A3012 RMK AO2 T01890178
cycle: 2

Station Type Date Time Source
KARA TAF 2022/12/09 18:57 UTC NOAA

TAF KARA 091752Z 0918/1018 20006KT P6SM FEW025 SCT035
FM100200 15004KT 4SM BR SCT015
FM100300 VRB03KT 1SM BR BKN005
TEMPO 1004/1007 1/4SM FG VV003
FM100700 18004KT 1/4SM FG VV002
FM101400 16003KT 3SM BR OVC004
FM101600 17008KT P6SM SCT009 OVC015

Example: see airport list